createdAt,value
2018-07-31T03:31:44.887Z,98555.66
2018-07-31T03:34:13.314Z,98561.80
2018-07-31T03:36:41.474Z,98561.86
2018-07-31T03:39:10.447Z,98555.56
2018-07-31T03:41:38.543Z,98557.36
2018-07-31T03:44:07.099Z,98561.98
2018-07-31T03:46:35.183Z,98565.17
2018-07-31T03:49:03.303Z,98562.54
2018-07-31T03:51:31.521Z,98558.36
2018-07-31T03:53:59.603Z,98559.19
2018-07-31T03:56:27.734Z,98559.63
2018-07-31T03:58:55.802Z,98568.73
2018-07-31T04:01:23.914Z,98566.91
2018-07-31T04:03:51.999Z,98565.23
2018-07-31T04:06:20.103Z,98570.69
2018-07-31T04:08:48.211Z,98567.86
2018-07-31T04:11:16.320Z,98570.72
2018-07-31T04:13:44.426Z,98574.73
2018-07-31T04:16:12.529Z,98573.72
2018-07-31T04:18:40.644Z,98577.56
2018-07-31T04:21:11.647Z,98569.94
2018-07-31T04:26:43.984Z,98582.58
2018-07-31T04:29:12.178Z,98586.95
2018-07-31T04:31:40.383Z,98584.94
2018-07-31T04:34:09.296Z,98581.38
2018-07-31T04:36:37.449Z,98585.19
2018-07-31T04:39:08.501Z,98584.06
2018-07-31T04:41:36.671Z,98583.00
2018-07-31T04:44:04.820Z,98587.80
2018-07-31T04:46:32.955Z,98592.53
2018-07-31T04:49:01.030Z,98594.66
2018-07-31T04:51:29.271Z,98598.63
2018-07-31T04:53:57.384Z,98594.86
2018-07-31T04:56:25.478Z,98590.35
2018-07-31T04:58:53.576Z,98590.64
2018-07-31T05:01:21.703Z,98594.22
2018-07-31T05:03:49.871Z,98593.31
2018-07-31T05:06:18.244Z,98590.10
2018-07-31T05:08:46.475Z,98596.35
2018-07-31T05:11:14.575Z,98587.01
2018-07-31T05:13:42.700Z,98592.69
2018-07-31T05:16:10.795Z,98594.86
2018-07-31T05:18:38.916Z,98594.37
2018-07-31T05:21:07.378Z,98601.30
2018-07-31T05:23:35.479Z,98598.95
2018-07-31T05:26:03.577Z,98610.09
2018-07-31T05:28:31.685Z,98613.03
2018-07-31T05:30:59.790Z,98616.63
2018-07-31T05:33:27.887Z,98620.69
2018-07-31T05:35:55.971Z,98621.87
2018-07-31T05:38:24.121Z,98626.12
2018-07-31T05:40:52.231Z,98622.34
2018-07-31T05:43:20.326Z,98613.79
2018-07-31T05:45:48.831Z,98610.21
2018-07-31T05:48:16.938Z,98615.75
2018-07-31T05:50:45.030Z,98609.38
2018-07-31T05:53:13.125Z,98604.84
2018-07-31T05:55:41.726Z,98610.47
2018-07-31T05:58:09.872Z,98602.20
2018-07-31T06:00:37.964Z,98596.49
2018-07-31T06:03:06.263Z,98606.80
2018-07-31T06:05:34.350Z,98599.28
2018-07-31T06:08:02.467Z,98600.30
2018-07-31T06:10:30.596Z,98605.70
2018-07-31T06:12:58.696Z,98605.77
2018-07-31T06:15:27.112Z,98606.93
2018-07-31T06:17:55.200Z,98604.08
2018-07-31T06:20:23.303Z,98603.66
2018-07-31T06:22:51.808Z,98609.08
2018-07-31T06:25:19.914Z,98612.19
2018-07-31T06:27:48.007Z,98609.20
2018-07-31T06:30:16.091Z,98614.31
2018-07-31T06:32:44.243Z,98611.95
2018-07-31T06:35:13.207Z,98620.23
2018-07-31T06:37:41.309Z,98615.71
2018-07-31T06:40:10.186Z,98622.72
2018-07-31T06:42:38.290Z,98625.70
2018-07-31T06:45:06.488Z,98620.90
2018-07-31T06:47:34.587Z,98635.44
2018-07-31T06:50:04.281Z,98628.48
2018-07-31T06:52:32.360Z,98633.75
2018-07-31T06:55:00.464Z,98644.27
2018-07-31T06:57:28.569Z,98637.89
2018-07-31T06:59:56.672Z,98640.46
2018-07-31T07:02:24.764Z,98642.23
2018-07-31T07:04:52.865Z,98649.77
2018-07-31T07:07:21.004Z,98649.61
2018-07-31T07:09:49.107Z,98647.52
2018-07-31T07:12:17.202Z,98643.77
2018-07-31T07:14:45.319Z,98643.25
2018-07-31T07:17:14.373Z,98644.58
2018-07-31T07:19:42.467Z,98649.60
2018-07-31T07:22:10.764Z,98645.78
2018-07-31T07:24:38.856Z,98645.27
2018-07-31T07:27:06.910Z,98640.79
2018-07-31T07:29:35.013Z,98645.33
2018-07-31T07:32:03.237Z,98644.37
2018-07-31T07:34:31.453Z,98642.75
2018-07-31T07:36:59.541Z,98650.09
2018-07-31T07:39:27.654Z,98649.58
2018-07-31T07:41:55.734Z,98643.69
2018-07-31T07:44:23.817Z,98639.06
2018-07-31T07:46:51.895Z,98641.56
2018-07-31T07:49:20.282Z,98641.42
2018-07-31T07:51:48.379Z,98646.99
2018-07-31T07:54:16.556Z,98645.09
2018-07-31T22:02:38.593Z,98755.00
2018-07-31T22:05:06.671Z,98759.92
2018-07-31T22:07:34.766Z,98767.97
2018-07-31T22:10:02.924Z,98769.20
2018-07-31T22:12:31.317Z,98765.14
2018-07-31T22:14:59.435Z,98767.17
2018-07-31T22:17:27.530Z,98768.59
2018-07-31T22:19:55.737Z,98774.50
2018-07-31T22:22:23.835Z,98774.66
2018-07-31T22:24:52.225Z,98770.58
2018-07-31T22:27:20.305Z,98772.72
2018-07-31T22:29:48.416Z,98770.62
2018-07-31T22:32:17.315Z,98771.84
2018-07-31T22:34:45.440Z,98774.70
2018-07-31T22:37:13.545Z,98775.36
2018-07-31T22:39:41.724Z,98774.63
2018-07-31T22:42:09.802Z,98767.83
2018-07-31T22:44:37.921Z,98773.73
2018-07-31T22:47:06.044Z,98771.64
2018-07-31T22:49:34.151Z,98767.51
2018-07-31T22:52:02.511Z,98770.89
2018-07-31T22:54:30.900Z,98771.86
2018-07-31T22:56:59.020Z,98772.36
2018-07-31T22:59:27.110Z,98770.05
2018-07-31T23:01:55.228Z,98770.79
2018-07-31T23:04:23.319Z,98774.70
2018-07-31T23:06:51.419Z,98775.73
2018-07-31T23:09:19.515Z,98771.36
2018-07-31T23:11:48.617Z,98773.55
2018-07-31T23:14:16.723Z,98776.94
2018-07-31T23:16:44.821Z,98774.61
2018-07-31T23:19:12.932Z,98785.80
2018-07-31T23:21:41.038Z,98785.20
2018-07-31T23:24:09.127Z,98784.23
2018-07-31T23:26:37.227Z,98781.59
2018-07-31T23:29:05.310Z,98777.92
2018-07-31T23:31:33.491Z,98775.22
2018-07-31T23:34:01.569Z,98775.83
2018-07-31T23:36:29.735Z,98771.92
2018-07-31T23:38:57.918Z,98768.95
2018-07-31T23:41:26.015Z,98772.55
2018-07-31T23:43:54.132Z,98771.95
2018-07-31T23:46:22.232Z,98770.31
2018-07-31T23:48:50.407Z,98772.03
2018-07-31T23:51:18.571Z,98775.63
2018-07-31T23:53:46.668Z,98777.14
2018-07-31T23:56:14.751Z,98782.52
2018-07-31T23:58:43.415Z,98779.42
